createdAt,value
2022-11-08T00:02:00.300Z,11.52
2022-11-08T00:04:31.367Z,12.38
2022-11-08T00:07:19.223Z,12.89
2022-11-08T00:10:07.939Z,12.96
2022-11-08T00:12:56.330Z,11.64
2022-11-08T00:15:27.709Z,10.46
2022-11-08T00:17:58.618Z,10.78
2022-11-08T00:20:29.876Z,11.74
2022-11-08T00:23:00.380Z,12.37
2022-11-08T00:25:31.451Z,12.70
2022-11-08T00:28:01.840Z,12.91
2022-11-08T00:30:32.899Z,12.83
2022-11-08T00:33:04.211Z,11.68
2022-11-08T00:35:35.100Z,10.53
2022-11-08T00:38:07.316Z,10.17
2022-11-08T00:40:38.219Z,11.15
2022-11-08T00:43:08.632Z,12.03
2022-11-08T00:45:39.778Z,12.59
2022-11-08T00:48:10.273Z,12.93
2022-11-08T00:50:42.048Z,12.76
2022-11-08T00:53:12.568Z,11.55
2022-11-08T00:55:43.301Z,10.44
2022-11-08T00:58:13.713Z,9.99
2022-11-08T01:00:44.551Z,10.93
2022-11-08T01:03:21.335Z,11.79
2022-11-08T01:05:53.187Z,12.35
2022-11-08T01:08:24.330Z,12.66
2022-11-08T01:10:55.604Z,12.56
2022-11-08T01:13:26.212Z,11.36
2022-11-08T01:15:57.041Z,10.27
2022-11-08T01:18:27.904Z,10.42
2022-11-08T01:21:03.534Z,11.39
2022-11-08T01:32:49.913Z,11.40
2022-11-08T01:35:20.727Z,10.18
2022-11-08T01:37:56.058Z,10.07
2022-11-08T01:40:27.300Z,11.04
2022-11-08T01:42:57.652Z,11.73
2022-11-08T01:45:46.177Z,12.15
2022-11-08T01:48:16.928Z,12.36
2022-11-08T01:50:48.675Z,11.48
2022-11-08T01:53:19.808Z,10.23
2022-11-08T01:55:51.767Z,9.64
2022-11-08T01:58:24.458Z,10.49
2022-11-08T02:00:55.472Z,11.30
2022-11-08T02:03:26.813Z,11.85
2022-11-08T02:05:58.082Z,12.20
2022-11-08T02:19:05.571Z,10.74
2022-11-08T02:21:38.936Z,11.52
2022-11-08T02:24:10.738Z,11.87
2022-11-08T02:26:41.739Z,12.10
2022-11-08T02:29:29.514Z,12.13
2022-11-08T02:32:00.673Z,10.84
2022-11-08T02:34:32.612Z,9.68
2022-11-08T02:37:04.534Z,9.18
2022-11-08T02:39:35.567Z,10.12
2022-11-08T02:42:06.443Z,11.04
2022-11-08T02:44:37.339Z,11.64
2022-11-08T02:47:08.234Z,12.03
2022-11-08T02:49:39.139Z,11.78
2022-11-08T02:52:10.068Z,10.52
2022-11-08T02:54:40.731Z,9.52
2022-11-08T02:57:11.539Z,10.11
2022-11-08T02:59:42.377Z,11.02
2022-11-08T03:02:13.186Z,11.51
2022-11-08T03:04:44.101Z,11.85
2022-11-08T03:07:14.759Z,11.82
2022-11-08T03:09:45.443Z,10.61
2022-11-08T03:12:16.226Z,9.44
2022-11-08T03:14:47.064Z,8.84
2022-11-08T03:17:17.696Z,9.81
2022-11-08T03:19:48.424Z,10.62
2022-11-08T03:22:18.949Z,11.11
2022-11-08T03:24:49.529Z,11.52
2022-11-08T03:27:20.695Z,11.43
2022-11-08T03:29:51.514Z,10.26
2022-11-08T03:32:22.873Z,9.05
2022-11-08T03:34:53.561Z,9.07
2022-11-08T03:37:24.392Z,10.09
2022-11-08T03:39:55.823Z,10.76
2022-11-08T03:42:26.675Z,11.18
2022-11-08T03:44:57.400Z,10.98
2022-11-08T03:47:28.312Z,9.61
2022-11-08T03:49:59.086Z,8.92
2022-11-08T03:52:29.699Z,9.58
2022-11-08T03:55:00.567Z,10.35
2022-11-08T03:57:31.363Z,10.86
2022-11-08T04:00:01.919Z,10.21
2022-11-08T04:02:41.921Z,8.77
2022-11-08T04:05:13.325Z,8.96
2022-11-08T04:07:44.335Z,9.86
2022-11-08T04:10:15.683Z,10.49
2022-11-08T04:13:04.133Z,10.83
2022-11-08T04:15:34.879Z,10.56
2022-11-08T04:18:23.008Z,9.20
2022-11-08T04:21:11.580Z,8.96
2022-11-08T04:23:42.219Z,9.84
2022-11-08T04:26:13.124Z,10.35
2022-11-08T04:28:43.993Z,10.64
2022-11-08T04:31:15.785Z,10.90
2022-11-08T04:33:46.600Z,10.79
2022-11-08T04:36:17.723Z,9.45
2022-11-08T04:38:50.882Z,8.46
2022-11-08T04:41:22.942Z,9.24
2022-11-08T04:43:54.194Z,10.17
2022-11-08T04:46:25.951Z,10.68
2022-11-08T04:48:57.203Z,10.84
2022-11-08T04:51:28.826Z,10.62
2022-11-08T04:54:00.317Z,9.33
2022-11-08T04:56:31.934Z,8.60
2022-11-08T04:59:02.654Z,9.32
2022-11-08T05:01:33.284Z,10.07
2022-11-08T05:04:03.790Z,10.59
2022-11-08T05:06:34.789Z,10.76
2022-11-08T05:09:05.388Z,10.87
2022-11-08T05:11:36.177Z,10.42
2022-11-08T05:14:06.789Z,9.23
2022-11-08T05:28:37.309Z,9.53
2022-11-08T05:31:09.150Z,8.06
2022-11-08T05:33:39.685Z,7.56
2022-11-08T05:36:11.751Z,8.59
2022-11-08T05:38:42.787Z,9.60
2022-11-08T05:41:14.335Z,10.14
2022-11-08T05:43:46.704Z,10.33
2022-11-08T05:46:18.380Z,10.53
2022-11-08T05:48:49.499Z,10.74
2022-11-08T05:51:20.576Z,9.82
2022-11-08T05:53:51.120Z,8.65
2022-11-08T05:56:21.906Z,9.08
2022-11-08T05:58:52.564Z,9.75
2022-11-08T06:01:23.159Z,10.19
2022-11-08T06:03:53.914Z,10.58
2022-11-08T06:06:24.829Z,10.92
2022-11-08T06:08:55.583Z,10.85
2022-11-08T06:11:27.313Z,9.61
2022-11-08T06:13:58.181Z,8.66
2022-11-08T06:16:28.778Z,9.38
2022-11-08T06:18:59.625Z,10.25
2022-11-08T06:21:30.258Z,10.87
2022-11-08T06:24:00.891Z,10.94
2022-11-08T06:26:31.518Z,9.76
2022-11-08T06:29:02.523Z,8.54
2022-11-08T06:31:33.009Z,8.35
2022-11-08T06:34:03.756Z,9.48
2022-11-08T06:36:34.245Z,10.34
2022-11-08T06:39:05.207Z,10.93
2022-11-08T06:41:36.004Z,11.21
2022-11-08T06:44:06.854Z,11.49
2022-11-08T06:46:37.547Z,11.22
2022-11-08T06:49:08.246Z,10.00
2022-11-08T06:51:38.950Z,8.96
2022-11-08T06:54:11.189Z,9.06
2022-11-08T06:56:44.868Z,10.20
2022-11-08T06:59:15.472Z,11.05
2022-11-08T07:01:46.207Z,11.61
2022-11-08T07:04:17.355Z,11.72
2022-11-08T07:06:48.101Z,10.71
2022-11-08T07:09:19.097Z,9.61
2022-11-08T07:11:49.874Z,9.26
2022-11-08T07:14:20.983Z,10.36
2022-11-08T07:16:52.018Z,11.44
2022-11-08T07:19:22.671Z,12.07
2022-11-08T07:21:53.283Z,11.52
2022-11-08T07:24:24.054Z,10.43
2022-11-08T07:26:54.800Z,9.61
2022-11-08T07:29:25.746Z,9.32
2022-11-08T07:31:56.556Z,10.74
2022-11-08T07:34:27.979Z,11.75
2022-11-08T07:36:58.802Z,12.31
2022-11-08T07:39:29.719Z,12.74
2022-11-08T07:42:00.480Z,12.90
2022-11-08T07:44:33.176Z,12.04
2022-11-08T07:47:04.204Z,11.07
2022-11-08T07:49:36.601Z,10.69
2022-11-08T07:52:07.275Z,11.78
2022-11-08T07:54:37.916Z,12.80
2022-11-08T07:57:08.583Z,13.48
2022-11-08T07:59:39.220Z,13.06
2022-11-08T08:02:10.495Z,12.03
2022-11-08T08:04:41.275Z,11.28
2022-11-08T08:07:12.627Z,11.02
2022-11-08T08:09:43.350Z,12.08
2022-11-08T08:12:14.025Z,13.24
2022-11-08T08:14:44.951Z,13.71
2022-11-08T08:17:15.770Z,12.94
2022-11-08T08:19:46.534Z,12.12
2022-11-08T08:22:17.324Z,11.84
2022-11-08T08:24:48.269Z,12.85
2022-11-08T08:27:18.790Z,13.76
2022-11-08T08:29:50.680Z,14.18
2022-11-08T08:32:21.714Z,13.66
2022-11-08T08:34:52.424Z,12.82
2022-11-08T08:37:23.110Z,12.21
2022-11-08T08:39:53.602Z,12.15
2022-11-08T08:42:24.312Z,13.38
2022-11-08T08:44:55.628Z,14.61
2022-11-08T08:47:26.805Z,14.58
2022-11-08T08:49:57.752Z,13.76
2022-11-08T08:52:28.377Z,13.14
2022-11-08T08:54:58.913Z,13.04
2022-11-08T08:57:29.731Z,14.16
2022-11-08T09:02:51.578Z,15.16
2022-11-08T09:05:22.583Z,14.41
2022-11-08T09:07:55.443Z,13.80
2022-11-08T09:10:26.208Z,13.28
2022-11-08T09:12:57.169Z,12.91
2022-11-08T09:15:28.350Z,13.00
2022-11-08T09:17:59.297Z,14.36
2022-11-08T09:20:30.316Z,15.31
2022-11-08T09:23:03.826Z,14.86
2022-11-08T09:25:32.688Z,14.17
2022-11-08T09:28:03.359Z,13.69
2022-11-08T09:30:34.158Z,13.73
2022-11-08T09:33:05.493Z,14.95
2022-11-08T09:35:36.148Z,15.85
2022-11-08T09:38:07.649Z,15.46
2022-11-08T09:40:41.722Z,14.90
2022-11-08T09:43:25.842Z,14.46
2022-11-08T09:45:57.611Z,14.89
2022-11-08T09:48:30.998Z,15.43
2022-11-08T09:51:05.523Z,14.91
2022-11-08T09:53:40.317Z,14.50
2022-11-08T09:56:15.077Z,14.24
2022-11-08T09:58:48.875Z,14.16
2022-11-08T10:01:23.276Z,15.29
2022-11-08T10:03:57.996Z,16.69
2022-11-08T10:06:43.989Z,17.29
2022-11-08T10:09:25.734Z,16.62
2022-11-08T10:12:03.714Z,16.00
2022-11-08T10:14:50.880Z,15.56
2022-11-08T10:17:31.838Z,15.27
2022-11-08T10:20:08.389Z,15.10
2022-11-08T10:22:44.428Z,14.99
2022-11-08T10:25:21.398Z,14.90
2022-11-08T10:27:52.644Z,15.04
2022-11-08T10:30:24.224Z,16.39
2022-11-08T10:32:55.744Z,17.48
2022-11-08T10:35:29.745Z,17.23
2022-11-08T10:38:01.006Z,16.67
2022-11-08T10:40:37.674Z,16.27
2022-11-08T10:43:11.301Z,16.03
2022-11-08T10:45:42.414Z,15.88
2022-11-08T10:48:13.412Z,15.78
2022-11-08T10:50:46.145Z,15.72
2022-11-08T10:53:19.969Z,15.67
2022-11-08T10:55:52.115Z,15.63
2022-11-08T10:58:38.033Z,15.59
2022-11-08T11:01:14.570Z,15.58
2022-11-08T11:03:45.610Z,15.55
2022-11-08T11:06:24.126Z,15.57
2022-11-08T11:08:57.622Z,15.58
2022-11-08T11:11:36.453Z,15.62
2022-11-08T11:14:10.006Z,15.67
2022-11-08T11:16:50.106Z,15.68
2022-11-08T11:19:20.581Z,15.70
2022-11-08T11:21:54.666Z,15.75
2022-11-08T11:24:25.888Z,15.82
2022-11-08T11:27:04.112Z,15.86
2022-11-08T11:29:35.337Z,15.89
2022-11-08T11:32:26.380Z,15.91
2022-11-08T11:34:59.047Z,15.93
2022-11-08T11:37:35.684Z,15.97
2022-11-08T11:40:09.523Z,15.98
2022-11-08T11:42:46.115Z,16.02
2022-11-08T11:45:21.121Z,16.04
2022-11-08T11:47:53.667Z,16.09
2022-11-08T11:50:29.242Z,16.14
2022-11-08T11:53:01.123Z,16.18
2022-11-08T11:55:44.446Z,16.20
2022-11-08T11:58:21.304Z,16.25
2022-11-08T12:00:56.958Z,16.29
2022-11-08T12:03:39.545Z,16.32
2022-11-08T12:06:18.726Z,16.35
2022-11-08T12:22:37.624Z,16.59
2022-11-08T12:25:11.953Z,16.62
2022-11-08T12:27:45.448Z,16.64
2022-11-08T12:30:18.432Z,16.67
2022-11-08T12:32:57.757Z,16.68
2022-11-08T12:35:35.740Z,16.68
2022-11-08T12:38:12.443Z,16.68
2022-11-08T12:40:46.809Z,16.69
2022-11-08T12:43:24.560Z,16.72
2022-11-08T12:46:01.666Z,16.71
2022-11-08T12:48:47.447Z,16.69
2022-11-08T12:51:22.269Z,16.68
2022-11-08T12:54:07.831Z,16.69
2022-11-08T12:56:40.629Z,16.72
2022-11-08T12:59:16.580Z,16.74
2022-11-08T13:01:47.604Z,16.77
2022-11-08T13:04:22.434Z,16.81
2022-11-08T13:06:58.177Z,16.83
2022-11-08T13:09:38.145Z,16.86
2022-11-08T13:12:14.401Z,16.87
2022-11-08T13:14:45.287Z,16.91
2022-11-08T13:17:17.372Z,16.94
2022-11-08T13:20:05.125Z,17.14
2022-11-08T13:23:08.325Z,18.01
2022-11-08T13:25:42.786Z,19.32
2022-11-08T13:28:30.894Z,20.27
2022-11-08T13:31:03.260Z,21.22
2022-11-08T13:33:34.841Z,22.04
2022-11-08T13:36:10.988Z,22.78
2022-11-08T13:38:47.267Z,23.43
2022-11-08T13:41:19.342Z,23.98
2022-11-08T13:43:50.543Z,24.50
2022-11-08T13:46:38.383Z,24.78
2022-11-08T13:49:16.104Z,25.14
2022-11-08T13:51:47.520Z,25.46
2022-11-08T13:54:48.603Z,25.65
2022-11-08T13:57:42.985Z,25.67
2022-11-08T14:00:33.769Z,25.65
2022-11-08T14:03:25.024Z,25.56
2022-11-08T14:05:57.676Z,25.00
2022-11-08T14:08:27.354Z,24.59
2022-11-08T14:11:11.409Z,24.18
2022-11-08T14:13:52.411Z,23.32
2022-11-08T14:16:25.821Z,22.45
2022-11-08T14:18:56.533Z,21.66
2022-11-08T14:21:28.066Z,20.97
2022-11-08T14:23:58.810Z,20.35
2022-11-08T14:26:31.498Z,19.82
2022-11-08T14:29:02.202Z,19.36
2022-11-08T14:31:33.890Z,18.97
2022-11-08T14:34:04.416Z,18.61
2022-11-08T14:36:36.246Z,18.28
2022-11-08T14:39:13.247Z,18.07
2022-11-08T14:41:46.644Z,18.08
2022-11-08T14:44:19.300Z,18.17
2022-11-08T14:46:50.408Z,18.17
2022-11-08T14:49:22.804Z,18.13
2022-11-08T14:52:07.850Z,18.05
2022-11-08T14:54:40.891Z,17.93
2022-11-08T14:57:35.546Z,17.71
2022-11-08T15:00:11.071Z,17.41
2022-11-08T15:02:43.099Z,17.10
2022-11-08T15:05:28.343Z,16.80
2022-11-08T15:07:59.689Z,16.51
2022-11-08T15:10:30.342Z,16.24
2022-11-08T15:13:01.273Z,16.00
2022-11-08T15:15:33.318Z,15.77
2022-11-08T15:18:11.963Z,15.56
2022-11-08T15:20:50.299Z,15.35
2022-11-08T15:23:34.074Z,15.15
2022-11-08T15:26:04.644Z,14.96
2022-11-08T15:28:35.559Z,14.80
2022-11-08T15:31:07.667Z,14.65
2022-11-08T15:33:40.983Z,14.51
2022-11-08T15:36:14.532Z,14.39
2022-11-08T15:38:48.736Z,14.26
2022-11-08T15:41:31.337Z,14.14
2022-11-08T15:44:21.224Z,14.02
2022-11-08T15:46:53.017Z,13.90
2022-11-08T15:49:24.784Z,13.79
2022-11-08T15:51:56.315Z,13.68
2022-11-08T15:54:28.056Z,13.59
2022-11-08T15:56:58.602Z,13.50
2022-11-08T15:59:30.846Z,13.40
2022-11-08T16:02:02.134Z,13.59
2022-11-08T16:04:32.883Z,14.99
2022-11-08T16:07:03.407Z,16.31
2022-11-08T16:09:34.502Z,16.90
2022-11-08T16:12:08.429Z,16.30
2022-11-08T16:14:40.419Z,15.45
2022-11-08T16:17:14.495Z,14.78
2022-11-08T16:19:45.073Z,14.27
2022-11-08T16:22:19.223Z,13.91
2022-11-08T16:24:50.160Z,13.63
2022-11-08T16:27:20.783Z,13.67
2022-11-08T16:29:51.519Z,14.91
2022-11-08T16:32:22.275Z,16.18
2022-11-08T16:34:52.920Z,16.48
2022-11-08T16:37:23.635Z,15.53
2022-11-08T16:39:54.395Z,14.68
2022-11-08T16:42:25.068Z,14.06
2022-11-08T16:44:56.227Z,13.98
2022-11-08T16:47:27.470Z,15.12
2022-11-08T16:49:59.213Z,16.11
2022-11-08T16:52:30.377Z,16.54
2022-11-08T16:55:01.284Z,15.76
2022-11-08T16:57:35.504Z,14.92
2022-11-08T17:00:07.315Z,14.25
2022-11-08T17:02:39.141Z,13.76
2022-11-08T17:05:12.821Z,13.38
2022-11-08T17:07:41.938Z,13.34
2022-11-08T17:10:15.837Z,14.49
2022-11-08T17:12:46.704Z,15.69
2022-11-08T17:15:18.177Z,16.24
2022-11-08T17:17:49.343Z,15.48
2022-11-08T17:20:21.018Z,14.59
2022-11-08T17:22:57.304Z,13.89
2022-11-08T17:25:28.201Z,13.35
2022-11-08T17:27:58.905Z,13.29
2022-11-08T17:30:29.785Z,14.48
2022-11-08T17:33:00.296Z,15.55
2022-11-08T17:35:31.069Z,16.03
2022-11-08T17:38:01.612Z,15.27
2022-11-08T17:40:32.344Z,14.32
2022-11-08T17:43:02.963Z,13.62
2022-11-08T17:45:34.198Z,13.31
2022-11-08T17:48:04.768Z,14.33
2022-11-08T17:50:35.624Z,15.31
2022-11-08T17:53:06.221Z,15.95
2022-11-08T17:55:36.858Z,16.08
2022-11-08T17:58:07.657Z,15.11
2022-11-08T18:00:38.680Z,14.08
2022-11-08T18:03:13.435Z,13.50
2022-11-08T18:05:52.963Z,14.28
2022-11-08T18:08:26.839Z,15.24
2022-11-08T18:10:58.364Z,15.79
2022-11-08T18:13:29.159Z,15.80
2022-11-08T18:16:07.909Z,14.79
2022-11-08T18:18:38.918Z,13.74
2022-11-08T18:21:10.186Z,12.98
2022-11-08T18:23:42.561Z,12.72
2022-11-08T18:26:13.893Z,13.75
2022-11-08T18:28:45.646Z,14.75
2022-11-08T18:31:18.321Z,15.39
2022-11-08T18:33:49.232Z,15.59
2022-11-08T18:36:20.949Z,14.63
2022-11-08T18:38:52.672Z,13.57
2022-11-08T18:41:25.469Z,13.48
2022-11-08T18:43:56.924Z,14.40
2022-11-08T18:46:28.450Z,15.11
2022-11-08T18:48:59.286Z,15.59
2022-11-08T18:51:30.321Z,15.73
2022-11-08T18:54:00.862Z,14.57
2022-11-08T18:56:31.909Z,13.38
2022-11-08T18:59:02.666Z,12.82
2022-11-08T19:01:33.718Z,13.65
2022-11-08T19:04:04.514Z,14.50
2022-11-08T19:06:35.388Z,15.07
2022-11-08T19:09:06.098Z,15.41
2022-11-08T19:11:37.423Z,15.38
2022-11-08T19:14:07.949Z,14.36
2022-11-08T19:16:38.561Z,13.34
2022-11-08T19:19:09.209Z,12.86
2022-11-08T19:21:41.977Z,13.74
2022-11-08T19:24:12.616Z,14.66
2022-11-08T19:26:43.435Z,15.16
2022-11-08T19:29:14.639Z,15.22
2022-11-08T19:31:45.611Z,14.18
2022-11-08T19:34:16.517Z,13.10
2022-11-08T19:36:52.738Z,12.61
2022-11-08T19:39:26.375Z,13.57
2022-11-08T19:41:57.070Z,14.47
2022-11-08T19:44:29.370Z,15.00
2022-11-08T19:47:01.054Z,15.11
2022-11-08T19:49:32.810Z,14.09
2022-11-08T19:52:05.440Z,13.00
2022-11-08T19:54:37.117Z,12.45
2022-11-08T19:57:09.203Z,13.31
2022-11-08T19:59:40.908Z,14.08
2022-11-08T20:02:12.754Z,14.59
2022-11-08T20:04:44.461Z,14.97
2022-11-08T20:07:16.143Z,15.00
2022-11-08T20:09:48.390Z,13.97
2022-11-08T20:12:19.857Z,12.91
2022-11-08T20:14:52.390Z,12.38
2022-11-08T20:17:23.937Z,13.26
2022-11-08T20:19:55.097Z,14.16
2022-11-08T20:22:25.905Z,14.69
2022-11-08T20:24:56.752Z,15.01
2022-11-08T20:27:27.189Z,14.62
2022-11-08T20:29:58.120Z,13.44
2022-11-08T20:32:29.450Z,12.45
2022-11-08T20:35:00.232Z,12.00
2022-11-08T20:37:30.923Z,12.94
2022-11-08T20:40:01.645Z,13.89
2022-11-08T20:42:32.280Z,14.47
2022-11-08T20:45:03.182Z,14.83
2022-11-08T20:47:35.928Z,14.42
2022-11-08T20:50:07.715Z,13.17
2022-11-08T20:52:38.463Z,12.13
2022-11-08T20:55:09.743Z,11.73
2022-11-08T20:57:40.255Z,12.70
2022-11-08T21:00:13.747Z,13.60
2022-11-08T21:02:44.699Z,14.14
2022-11-08T21:05:15.451Z,14.49
2022-11-08T21:08:19.769Z,14.51
2022-11-08T21:10:43.254Z,13.30
2022-11-08T21:13:15.551Z,12.16
2022-11-08T21:15:46.877Z,12.09
2022-11-08T21:18:20.373Z,12.97
2022-11-08T21:20:52.742Z,13.65
2022-11-08T21:23:23.561Z,14.07
2022-11-08T21:25:55.422Z,14.38
2022-11-08T21:28:26.693Z,14.32
2022-11-08T21:30:57.786Z,13.19
2022-11-08T21:33:28.547Z,12.04
2022-11-08T21:35:59.902Z,11.45
2022-11-08T21:38:30.689Z,12.26
2022-11-08T21:41:06.056Z,13.12
2022-11-08T21:43:37.741Z,13.69
2022-11-08T21:46:16.444Z,14.06
2022-11-08T21:48:47.690Z,13.68
2022-11-08T21:51:18.392Z,12.38
2022-11-08T21:53:54.673Z,11.27
2022-11-08T21:56:27.776Z,10.91
2022-11-08T21:58:58.777Z,11.91
2022-11-08T22:01:30.776Z,12.76
2022-11-08T22:04:01.791Z,13.40
2022-11-08T22:06:32.531Z,13.64
2022-11-08T22:09:03.715Z,13.50
2022-11-08T22:11:36.090Z,12.32
2022-11-08T22:14:07.077Z,11.25
2022-11-08T22:16:37.831Z,11.68
2022-11-08T22:19:09.499Z,12.58
2022-11-08T22:21:43.536Z,13.20
2022-11-08T22:24:17.273Z,13.62
2022-11-08T22:26:46.366Z,13.64
2022-11-08T22:29:18.023Z,12.47
2022-11-08T22:31:48.549Z,11.27
2022-11-08T22:34:19.345Z,11.22
2022-11-08T22:36:51.552Z,12.11
2022-11-08T22:39:23.230Z,12.84
2022-11-08T22:41:56.402Z,12.68
2022-11-08T22:44:27.289Z,11.35
2022-11-08T22:46:58.269Z,11.41
2022-11-08T22:49:29.316Z,12.08
2022-11-08T22:52:00.160Z,12.40
2022-11-08T22:54:31.882Z,12.51
2022-11-08T22:57:04.506Z,12.59
2022-11-08T22:59:35.321Z,12.84
2022-11-08T23:02:06.090Z,12.59
2022-11-08T23:04:37.027Z,11.01
2022-11-08T23:07:07.633Z,10.23
2022-11-08T23:09:38.454Z,11.04
2022-11-08T23:12:27.151Z,11.67
2022-11-08T23:15:15.580Z,12.13
2022-11-08T23:17:46.291Z,12.37
2022-11-08T23:20:35.360Z,11.78
2022-11-08T23:23:24.010Z,10.14
2022-11-08T23:25:55.864Z,10.00
2022-11-08T23:28:44.167Z,10.74
2022-11-08T23:31:32.735Z,11.49
2022-11-08T23:34:03.440Z,11.73
2022-11-08T23:36:34.333Z,11.99
2022-11-08T23:39:05.264Z,11.55
2022-11-08T23:41:53.415Z,10.19
2022-11-08T23:44:27.983Z,9.81
2022-11-08T23:46:59.657Z,10.29
2022-11-08T23:49:30.521Z,10.88
2022-11-08T23:52:01.262Z,10.95
2022-11-08T23:54:31.889Z,10.72
2022-11-08T23:57:02.753Z,10.83
2022-11-08T23:59:33.663Z,10.85
